sensor_id;sensor_type;location;lat;lon;timestamp;P1;durP1;ratioP1;P2;durP2;ratioP2
18286;SDS011;9269;50.838;12.094;2023-06-05T00:01:30;4.97;;;4.40;;
18286;SDS011;9269;50.838;12.094;2023-06-05T00:04:01;5.53;;;3.73;;
18286;SDS011;9269;50.838;12.094;2023-06-05T00:06:30;5.40;;;4.20;;
18286;SDS011;9269;50.838;12.094;2023-06-05T00:08:59;6.20;;;4.27;;
18286;SDS011;9269;50.838;12.094;2023-06-05T00:11:27;5.10;;;3.60;;
18286;SDS011;9269;50.838;12.094;2023-06-05T00:13:56;4.30;;;3.90;;
18286;SDS011;9269;50.838;12.094;2023-06-05T00:16:26;6.07;;;3.50;;
18286;SDS011;9269;50.838;12.094;2023-06-05T00:18:55;7.37;;;3.80;;
18286;SDS011;9269;50.838;12.094;2023-06-05T00:21:24;5.73;;;3.80;;
18286;SDS011;9269;50.838;12.094;2023-06-05T00:23:53;5.47;;;3.47;;
18286;SDS011;9269;50.838;12.094;2023-06-05T00:26:21;6.83;;;4.40;;
18286;SDS011;9269;50.838;12.094;2023-06-05T00:28:50;3.93;;;3.20;;
18286;SDS011;9269;50.838;12.094;2023-06-05T00:31:18;3.77;;;3.40;;
18286;SDS011;9269;50.838;12.094;2023-06-05T00:33:50;5.30;;;3.93;;
18286;SDS011;9269;50.838;12.094;2023-06-05T00:36:18;6.63;;;3.50;;
18286;SDS011;9269;50.838;12.094;2023-06-05T00:38:49;6.07;;;3.93;;
18286;SDS011;9269;50.838;12.094;2023-06-05T00:41:18;3.53;;;3.23;;
18286;SDS011;9269;50.838;12.094;2023-06-05T00:43:46;4.03;;;3.50;;
18286;SDS011;9269;50.838;12.094;2023-06-05T00:46:15;3.43;;;3.13;;
18286;SDS011;9269;50.838;12.094;2023-06-05T00:48:44;5.87;;;3.97;;
18286;SDS011;9269;50.838;12.094;2023-06-05T00:51:17;5.50;;;4.23;;
18286;SDS011;9269;50.838;12.094;2023-06-05T00:53:47;6.23;;;4.00;;
18286;SDS011;9269;50.838;12.094;2023-06-05T00:56:15;5.43;;;3.87;;
18286;SDS011;9269;50.838;12.094;2023-06-05T00:58:48;3.57;;;3.27;;
18286;SDS011;9269;50.838;12.094;2023-06-05T01:01:17;3.50;;;3.20;;
18286;SDS011;9269;50.838;12.094;2023-06-05T01:03:47;3.57;;;3.27;;
18286;SDS011;9269;50.838;12.094;2023-06-05T01:06:17;4.20;;;3.23;;
18286;SDS011;9269;50.838;12.094;2023-06-05T01:08:46;4.37;;;3.10;;
18286;SDS011;9269;50.838;12.094;2023-06-05T01:11:16;3.67;;;3.10;;
18286;SDS011;9269;50.838;12.094;2023-06-05T01:13:50;3.83;;;2.97;;
18286;SDS011;9269;50.838;12.094;2023-06-05T01:16:24;3.10;;;2.80;;
18286;SDS011;9269;50.838;12.094;2023-06-05T01:18:59;3.37;;;3.00;;
18286;SDS011;9269;50.838;12.094;2023-06-05T01:21:31;6.93;;;2.90;;
18286;SDS011;9269;50.838;12.094;2023-06-05T01:24:02;5.03;;;3.53;;
18286;SDS011;9269;50.838;12.094;2023-06-05T01:26:33;4.53;;;3.37;;
18286;SDS011;9269;50.838;12.094;2023-06-05T01:29:11;4.37;;;3.50;;
18286;SDS011;9269;50.838;12.094;2023-06-05T01:31:42;3.50;;;3.20;;
18286;SDS011;9269;50.838;12.094;2023-06-05T01:34:13;5.07;;;3.47;;
18286;SDS011;9269;50.838;12.094;2023-06-05T01:36:46;4.40;;;3.50;;
18286;SDS011;9269;50.838;12.094;2023-06-05T01:39:17;4.83;;;3.50;;
18286;SDS011;9269;50.838;12.094;2023-06-05T01:41:46;4.57;;;3.20;;
18286;SDS011;9269;50.838;12.094;2023-06-05T01:44:17;5.50;;;3.73;;
18286;SDS011;9269;50.838;12.094;2023-06-05T01:46:46;4.97;;;3.67;;
18286;SDS011;9269;50.838;12.094;2023-06-05T01:49:15;5.53;;;4.10;;
18286;SDS011;9269;50.838;12.094;2023-06-05T01:51:44;6.07;;;4.07;;
18286;SDS011;9269;50.838;12.094;2023-06-05T01:54:12;4.60;;;4.00;;
18286;SDS011;9269;50.838;12.094;2023-06-05T01:56:44;4.33;;;3.93;;
18286;SDS011;9269;50.838;12.094;2023-06-05T01:59:14;6.40;;;4.30;;
18286;SDS011;9269;50.838;12.094;2023-06-05T02:01:43;5.17;;;4.50;;
18286;SDS011;9269;50.838;12.094;2023-06-05T02:04:13;5.70;;;3.70;;
18286;SDS011;9269;50.838;12.094;2023-06-05T02:06:43;4.93;;;4.20;;
18286;SDS011;9269;50.838;12.094;2023-06-05T02:09:12;9.20;;;4.00;;
18286;SDS011;9269;50.838;12.094;2023-06-05T02:11:41;4.00;;;3.50;;
18286;SDS011;9269;50.838;12.094;2023-06-05T02:14:13;5.40;;;3.10;;
18286;SDS011;9269;50.838;12.094;2023-06-05T02:16:42;3.67;;;3.30;;
18286;SDS011;9269;50.838;12.094;2023-06-05T02:19:15;4.70;;;3.43;;
18286;SDS011;9269;50.838;12.094;2023-06-05T02:21:45;3.93;;;3.20;;
18286;SDS011;9269;50.838;12.094;2023-06-05T02:24:14;4.70;;;3.30;;
18286;SDS011;9269;50.838;12.094;2023-06-05T02:26:42;3.70;;;3.33;;
18286;SDS011;9269;50.838;12.094;2023-06-05T02:29:11;4.23;;;3.60;;
18286;SDS011;9269;50.838;12.094;2023-06-05T02:31:41;4.37;;;3.97;;
18286;SDS011;9269;50.838;12.094;2023-06-05T02:34:10;4.40;;;4.00;;
18286;SDS011;9269;50.838;12.094;2023-06-05T02:36:39;5.90;;;4.60;;
18286;SDS011;9269;50.838;12.094;2023-06-05T02:39:07;6.57;;;4.80;;
18286;SDS011;9269;50.838;12.094;2023-06-05T02:41:37;5.07;;;3.90;;
18286;SDS011;9269;50.838;12.094;2023-06-05T02:44:06;3.47;;;3.17;;
18286;SDS011;9269;50.838;12.094;2023-06-05T02:46:34;3.83;;;3.43;;
18286;SDS011;9269;50.838;12.094;2023-06-05T02:49:04;4.00;;;3.10;;
18286;SDS011;9269;50.838;12.094;2023-06-05T02:51:32;5.37;;;3.37;;
18286;SDS011;9269;50.838;12.094;2023-06-05T02:54:02;3.20;;;2.90;;
18286;SDS011;9269;50.838;12.094;2023-06-05T02:56:30;2.97;;;2.67;;
18286;SDS011;9269;50.838;12.094;2023-06-05T02:58:59;3.30;;;2.57;;
18286;SDS011;9269;50.838;12.094;2023-06-05T03:01:29;3.97;;;2.57;;
18286;SDS011;9269;50.838;12.094;2023-06-05T03:04:01;3.10;;;2.80;;
18286;SDS011;9269;50.838;12.094;2023-06-05T03:06:31;3.37;;;2.80;;
18286;SDS011;9269;50.838;12.094;2023-06-05T03:09:00;2.83;;;2.60;;
18286;SDS011;9269;50.838;12.094;2023-06-05T03:11:30;5.03;;;2.90;;
18286;SDS011;9269;50.838;12.094;2023-06-05T03:13:59;3.17;;;2.90;;
18286;SDS011;9269;50.838;12.094;2023-06-05T03:16:27;3.23;;;2.73;;
18286;SDS011;9269;50.838;12.094;2023-06-05T03:19:00;3.50;;;3.20;;
18286;SDS011;9269;50.838;12.094;2023-06-05T03:21:29;3.87;;;3.10;;
18286;SDS011;9269;50.838;12.094;2023-06-05T03:23:59;4.60;;;3.10;;
18286;SDS011;9269;50.838;12.094;2023-06-05T03:26:28;3.77;;;3.40;;
18286;SDS011;9269;50.838;12.094;2023-06-05T03:28:57;5.77;;;4.23;;
18286;SDS011;9269;50.838;12.094;2023-06-05T03:31:26;4.90;;;4.43;;
18286;SDS011;9269;50.838;12.094;2023-06-05T03:33:54;4.37;;;3.97;;
18286;SDS011;9269;50.838;12.094;2023-06-05T03:36:25;6.90;;;4.10;;
18286;SDS011;9269;50.838;12.094;2023-06-05T03:38:54;4.70;;;3.60;;
18286;SDS011;9269;50.838;12.094;2023-06-05T03:41:24;4.87;;;3.40;;
18286;SDS011;9269;50.838;12.094;2023-06-05T03:43:53;6.00;;;3.40;;
18286;SDS011;9269;50.838;12.094;2023-06-05T03:46:24;4.63;;;3.73;;
18286;SDS011;9269;50.838;12.094;2023-06-05T03:48:56;4.17;;;3.87;;
18286;SDS011;9269;50.838;12.094;2023-06-05T03:51:26;3.80;;;3.40;;
18286;SDS011;9269;50.838;12.094;2023-06-05T03:53:56;3.97;;;3.33;;
18286;SDS011;9269;50.838;12.094;2023-06-05T03:56:27;4.70;;;3.40;;
18286;SDS011;9269;50.838;12.094;2023-06-05T03:59:01;4.07;;;2.90;;
18286;SDS011;9269;50.838;12.094;2023-06-05T04:01:35;3.63;;;2.93;;
18286;SDS011;9269;50.838;12.094;2023-06-05T04:04:05;3.67;;;3.10;;
18286;SDS011;9269;50.838;12.094;2023-06-05T04:06:35;3.27;;;2.90;;
18286;SDS011;9269;50.838;12.094;2023-06-05T04:09:04;3.20;;;2.90;;
18286;SDS011;9269;50.838;12.094;2023-06-05T04:11:39;2.67;;;2.47;;
18286;SDS011;9269;50.838;12.094;2023-06-05T04:14:09;2.87;;;2.53;;
18286;SDS011;9269;50.838;12.094;2023-06-05T04:16:38;2.90;;;2.70;;
18286;SDS011;9269;50.838;12.094;2023-06-05T04:19:10;2.37;;;2.17;;
18286;SDS011;9269;50.838;12.094;2023-06-05T04:21:40;3.00;;;2.70;;
18286;SDS011;9269;50.838;12.094;2023-06-05T04:24:09;4.57;;;2.57;;
18286;SDS011;9269;50.838;12.094;2023-06-05T04:26:40;3.00;;;2.70;;
18286;SDS011;9269;50.838;12.094;2023-06-05T04:29:09;2.40;;;2.13;;
18286;SDS011;9269;50.838;12.094;2023-06-05T04:31:41;2.97;;;2.70;;
18286;SDS011;9269;50.838;12.094;2023-06-05T04:34:11;4.70;;;2.73;;
18286;SDS011;9269;50.838;12.094;2023-06-05T04:36:39;3.13;;;2.83;;
18286;SDS011;9269;50.838;12.094;2023-06-05T04:39:08;4.00;;;3.40;;
18286;SDS011;9269;50.838;12.094;2023-06-05T04:41:43;3.47;;;2.70;;
18286;SDS011;9269;50.838;12.094;2023-06-05T04:44:20;4.10;;;2.90;;
18286;SDS011;9269;50.838;12.094;2023-06-05T04:46:49;4.90;;;3.10;;
18286;SDS011;9269;50.838;12.094;2023-06-05T04:49:17;3.30;;;3.00;;
18286;SDS011;9269;50.838;12.094;2023-06-05T04:51:46;3.37;;;3.07;;
18286;SDS011;9269;50.838;12.094;2023-06-05T04:54:15;2.77;;;2.57;;
18286;SDS011;9269;50.838;12.094;2023-06-05T04:56:45;2.90;;;2.60;;
18286;SDS011;9269;50.838;12.094;2023-06-05T04:59:16;5.50;;;2.90;;
18286;SDS011;9269;50.838;12.094;2023-06-05T05:01:45;3.93;;;2.90;;
18286;SDS011;9269;50.838;12.094;2023-06-05T05:04:17;3.90;;;2.77;;
18286;SDS011;9269;50.838;12.094;2023-06-05T05:06:46;3.50;;;3.20;;
18286;SDS011;9269;50.838;12.094;2023-06-05T05:09:14;4.20;;;2.90;;
18286;SDS011;9269;50.838;12.094;2023-06-05T05:11:43;3.07;;;2.77;;
18286;SDS011;9269;50.838;12.094;2023-06-05T05:14:12;4.00;;;2.87;;
18286;SDS011;9269;50.838;12.094;2023-06-05T05:16:41;3.03;;;2.80;;
18286;SDS011;9269;50.838;12.094;2023-06-05T05:19:09;3.60;;;2.63;;
18286;SDS011;9269;50.838;12.094;2023-06-05T05:21:38;3.23;;;2.93;;
18286;SDS011;9269;50.838;12.094;2023-06-05T05:24:07;3.07;;;2.77;;
18286;SDS011;9269;50.838;12.094;2023-06-05T05:26:36;3.13;;;2.83;;
18286;SDS011;9269;50.838;12.094;2023-06-05T05:29:07;4.53;;;2.93;;
18286;SDS011;9269;50.838;12.094;2023-06-05T05:31:36;3.00;;;2.70;;
18286;SDS011;9269;50.838;12.094;2023-06-05T05:34:04;3.03;;;2.50;;
18286;SDS011;9269;50.838;12.094;2023-06-05T05:36:33;3.17;;;2.83;;
18286;SDS011;9269;50.838;12.094;2023-06-05T05:39:03;3.37;;;2.70;;
18286;SDS011;9269;50.838;12.094;2023-06-05T05:41:34;3.97;;;2.93;;
18286;SDS011;9269;50.838;12.094;2023-06-05T05:44:02;4.93;;;3.03;;
18286;SDS011;9269;50.838;12.094;2023-06-05T05:46:32;4.63;;;3.20;;
18286;SDS011;9269;50.838;12.094;2023-06-05T05:49:01;4.23;;;2.93;;
18286;SDS011;9269;50.838;12.094;2023-06-05T05:51:29;6.60;;;3.10;;
18286;SDS011;9269;50.838;12.094;2023-06-05T05:53:58;4.90;;;3.30;;
18286;SDS011;9269;50.838;12.094;2023-06-05T05:56:27;5.93;;;3.30;;
18286;SDS011;9269;50.838;12.094;2023-06-05T05:58:56;5.33;;;3.67;;
18286;SDS011;9269;50.838;12.094;2023-06-05T06:01:25;3.57;;;2.80;;
18286;SDS011;9269;50.838;12.094;2023-06-05T06:03:54;7.13;;;2.90;;
18286;SDS011;9269;50.838;12.094;2023-06-05T06:06:24;3.67;;;3.00;;
18286;SDS011;9269;50.838;12.094;2023-06-05T06:08:52;3.30;;;2.90;;
18286;SDS011;9269;50.838;12.094;2023-06-05T06:11:21;4.57;;;3.00;;
18286;SDS011;9269;50.838;12.094;2023-06-05T06:13:49;3.60;;;2.90;;
18286;SDS011;9269;50.838;12.094;2023-06-05T06:16:18;3.87;;;3.13;;
18286;SDS011;9269;50.838;12.094;2023-06-05T06:18:47;5.50;;;2.77;;
18286;SDS011;9269;50.838;12.094;2023-06-05T06:21:17;5.43;;;3.00;;
18286;SDS011;9269;50.838;12.094;2023-06-05T06:23:46;5.60;;;3.60;;
18286;SDS011;9269;50.838;12.094;2023-06-05T06:26:15;4.77;;;3.00;;
18286;SDS011;9269;50.838;12.094;2023-06-05T06:28:43;4.10;;;3.33;;
18286;SDS011;9269;50.838;12.094;2023-06-05T06:31:12;8.10;;;3.50;;
18286;SDS011;9269;50.838;12.094;2023-06-05T06:33:41;4.87;;;3.07;;
18286;SDS011;9269;50.838;12.094;2023-06-05T06:36:10;3.60;;;3.20;;
18286;SDS011;9269;50.838;12.094;2023-06-05T06:38:40;4.07;;;3.20;;
18286;SDS011;9269;50.838;12.094;2023-06-05T06:41:09;4.27;;;3.63;;
18286;SDS011;9269;50.838;12.094;2023-06-05T06:43:37;5.43;;;3.10;;
18286;SDS011;9269;50.838;12.094;2023-06-05T06:46:06;3.50;;;3.20;;
18286;SDS011;9269;50.838;12.094;2023-06-05T06:48:34;3.87;;;3.07;;
18286;SDS011;9269;50.838;12.094;2023-06-05T06:51:03;4.10;;;2.80;;
18286;SDS011;9269;50.838;12.094;2023-06-05T06:53:32;5.70;;;3.27;;
18286;SDS011;9269;50.838;12.094;2023-06-05T06:56:02;5.40;;;3.90;;
18286;SDS011;9269;50.838;12.094;2023-06-05T06:58:31;4.50;;;3.30;;
18286;SDS011;9269;50.838;12.094;2023-06-05T07:01:00;5.73;;;3.60;;
18286;SDS011;9269;50.838;12.094;2023-06-05T07:03:29;7.90;;;3.73;;
18286;SDS011;9269;50.838;12.094;2023-06-05T07:05:57;4.87;;;3.80;;
18286;SDS011;9269;50.838;12.094;2023-06-05T07:08:26;5.13;;;4.20;;
18286;SDS011;9269;50.838;12.094;2023-06-05T07:10:54;6.13;;;3.67;;
18286;SDS011;9269;50.838;12.094;2023-06-05T07:13:24;3.87;;;3.37;;
18286;SDS011;9269;50.838;12.094;2023-06-05T07:15:53;3.80;;;3.40;;
18286;SDS011;9269;50.838;12.094;2023-06-05T07:18:22;3.93;;;3.53;;
18286;SDS011;9269;50.838;12.094;2023-06-05T07:20:51;10.30;;;3.90;;
18286;SDS011;9269;50.838;12.094;2023-06-05T07:23:19;3.90;;;3.50;;
18286;SDS011;9269;50.838;12.094;2023-06-05T07:25:48;4.70;;;3.07;;
18286;SDS011;9269;50.838;12.094;2023-06-05T07:28:18;4.73;;;3.47;;
18286;SDS011;9269;50.838;12.094;2023-06-05T07:30:48;3.20;;;2.90;;
18286;SDS011;9269;50.838;12.094;2023-06-05T07:33:17;5.70;;;3.43;;
18286;SDS011;9269;50.838;12.094;2023-06-05T07:35:58;3.67;;;3.23;;
18286;SDS011;9269;50.838;12.094;2023-06-05T07:38:26;4.23;;;3.10;;
18286;SDS011;9269;50.838;12.094;2023-06-05T07:40:56;3.77;;;3.37;;
18286;SDS011;9269;50.838;12.094;2023-06-05T07:43:28;3.37;;;3.07;;
18286;SDS011;9269;50.838;12.094;2023-06-05T07:45:58;4.50;;;3.50;;
18286;SDS011;9269;50.838;12.094;2023-06-05T07:48:26;4.73;;;3.43;;
18286;SDS011;9269;50.838;12.094;2023-06-05T07:50:55;5.27;;;3.30;;
18286;SDS011;9269;50.838;12.094;2023-06-05T07:53:24;3.37;;;2.77;;
18286;SDS011;9269;50.838;12.094;2023-06-05T07:55:52;6.10;;;3.60;;
18286;SDS011;9269;50.838;12.094;2023-06-05T07:58:21;3.63;;;3.07;;
18286;SDS011;9269;50.838;12.094;2023-06-05T08:00:49;4.87;;;3.23;;
18286;SDS011;9269;50.838;12.094;2023-06-05T08:03:20;5.17;;;3.40;;
18286;SDS011;9269;50.838;12.094;2023-06-05T08:05:49;4.03;;;3.20;;
18286;SDS011;9269;50.838;12.094;2023-06-05T08:08:18;3.97;;;3.23;;
18286;SDS011;9269;50.838;12.094;2023-06-05T08:10:46;4.30;;;3.47;;
18286;SDS011;9269;50.838;12.094;2023-06-05T08:13:15;5.47;;;2.80;;
18286;SDS011;9269;50.838;12.094;2023-06-05T08:15:44;4.13;;;3.33;;
18286;SDS011;9269;50.838;12.094;2023-06-05T08:18:13;4.70;;;2.80;;
18286;SDS011;9269;50.838;12.094;2023-06-05T08:20:44;3.57;;;2.60;;
18286;SDS011;9269;50.838;12.094;2023-06-05T08:23:13;3.50;;;2.50;;
18286;SDS011;9269;50.838;12.094;2023-06-05T08:25:43;3.40;;;2.60;;
18286;SDS011;9269;50.838;12.094;2023-06-05T08:28:12;5.13;;;2.77;;
18286;SDS011;9269;50.838;12.094;2023-06-05T08:30:40;3.90;;;2.83;;
18286;SDS011;9269;50.838;12.094;2023-06-05T08:33:09;5.63;;;2.57;;
18286;SDS011;9269;50.838;12.094;2023-06-05T08:35:39;4.43;;;2.60;;
18286;SDS011;9269;50.838;12.094;2023-06-05T08:38:09;4.07;;;2.90;;
18286;SDS011;9269;50.838;12.094;2023-06-05T08:40:38;6.13;;;2.60;;
18286;SDS011;9269;50.838;12.094;2023-06-05T08:43:08;3.53;;;2.93;;
18286;SDS011;9269;50.838;12.094;2023-06-05T08:45:37;5.20;;;2.83;;
18286;SDS011;9269;50.838;12.094;2023-06-05T08:48:05;2.67;;;2.33;;
18286;SDS011;9269;50.838;12.094;2023-06-05T08:50:40;4.17;;;2.90;;
18286;SDS011;9269;50.838;12.094;2023-06-05T08:53:11;2.90;;;2.40;;
18286;SDS011;9269;50.838;12.094;2023-06-05T08:55:46;3.57;;;2.60;;
18286;SDS011;9269;50.838;12.094;2023-06-05T08:58:18;4.20;;;2.50;;
18286;SDS011;9269;50.838;12.094;2023-06-05T09:00:48;4.73;;;2.70;;
18286;SDS011;9269;50.838;12.094;2023-06-05T09:03:17;3.10;;;2.77;;
18286;SDS011;9269;50.838;12.094;2023-06-05T09:05:47;3.80;;;2.80;;
18286;SDS011;9269;50.838;12.094;2023-06-05T09:08:17;4.00;;;2.60;;
18286;SDS011;9269;50.838;12.094;2023-06-05T09:10:55;5.10;;;2.90;;
18286;SDS011;9269;50.838;12.094;2023-06-05T09:13:54;3.27;;;2.70;;
18286;SDS011;9269;50.838;12.094;2023-06-05T09:16:32;3.70;;;2.70;;
18286;SDS011;9269;50.838;12.094;2023-06-05T09:19:06;4.10;;;2.90;;
18286;SDS011;9269;50.838;12.094;2023-06-05T09:21:38;3.20;;;2.63;;
18286;SDS011;9269;50.838;12.094;2023-06-05T09:24:15;4.17;;;2.57;;
18286;SDS011;9269;50.838;12.094;2023-06-05T09:26:49;4.40;;;3.00;;
18286;SDS011;9269;50.838;12.094;2023-06-05T09:29:24;6.10;;;3.43;;
18286;SDS011;9269;50.838;12.094;2023-06-05T09:31:55;5.30;;;3.17;;
18286;SDS011;9269;50.838;12.094;2023-06-05T09:34:25;4.53;;;2.70;;
18286;SDS011;9269;50.838;12.094;2023-06-05T09:36:55;6.10;;;3.50;;
18286;SDS011;9269;50.838;12.094;2023-06-05T09:39:26;4.20;;;3.77;;
18286;SDS011;9269;50.838;12.094;2023-06-05T09:41:57;6.27;;;3.47;;
18286;SDS011;9269;50.838;12.094;2023-06-05T09:44:26;4.73;;;3.33;;
18286;SDS011;9269;50.838;12.094;2023-06-05T09:46:57;4.60;;;3.50;;
18286;SDS011;9269;50.838;12.094;2023-06-05T09:49:29;5.43;;;3.50;;
18286;SDS011;9269;50.838;12.094;2023-06-05T09:52:00;4.40;;;3.50;;
18286;SDS011;9269;50.838;12.094;2023-06-05T09:54:33;5.80;;;3.67;;
18286;SDS011;9269;50.838;12.094;2023-06-05T09:57:06;4.43;;;3.60;;
18286;SDS011;9269;50.838;12.094;2023-06-05T09:59:38;3.47;;;3.20;;
18286;SDS011;9269;50.838;12.094;2023-06-05T10:02:13;3.07;;;2.87;;
18286;SDS011;9269;50.838;12.094;2023-06-05T10:04:48;7.10;;;3.60;;
18286;SDS011;9269;50.838;12.094;2023-06-05T10:07:18;4.03;;;2.93;;
18286;SDS011;9269;50.838;12.094;2023-06-05T10:09:51;4.43;;;3.80;;
18286;SDS011;9269;50.838;12.094;2023-06-05T10:12:22;3.83;;;3.50;;
18286;SDS011;9269;50.838;12.094;2023-06-05T10:14:53;5.63;;;3.70;;
18286;SDS011;9269;50.838;12.094;2023-06-05T10:17:22;3.60;;;3.30;;
18286;SDS011;9269;50.838;12.094;2023-06-05T10:19:51;3.60;;;3.30;;
18286;SDS011;9269;50.838;12.094;2023-06-05T10:22:23;3.83;;;3.53;;
18286;SDS011;9269;50.838;12.094;2023-06-05T10:24:56;4.23;;;3.57;;
18286;SDS011;9269;50.838;12.094;2023-06-05T10:27:35;3.87;;;3.57;;
18286;SDS011;9269;50.838;12.094;2023-06-05T10:33:38;3.57;;;3.00;;
18286;SDS011;9269;50.838;12.094;2023-06-05T10:36:18;4.03;;;3.20;;
18286;SDS011;9269;50.838;12.094;2023-06-05T10:39:07;3.50;;;3.20;;
18286;SDS011;9269;50.838;12.094;2023-06-05T10:41:39;3.73;;;3.43;;
18286;SDS011;9269;50.838;12.094;2023-06-05T10:44:09;5.40;;;3.70;;
18286;SDS011;9269;50.838;12.094;2023-06-05T10:46:39;6.27;;;3.57;;
18286;SDS011;9269;50.838;12.094;2023-06-05T10:49:09;4.50;;;3.30;;
18286;SDS011;9269;50.838;12.094;2023-06-05T10:51:40;3.40;;;3.10;;
18286;SDS011;9269;50.838;12.094;2023-06-05T10:54:11;4.40;;;4.00;;
18286;SDS011;9269;50.838;12.094;2023-06-05T10:56:53;3.90;;;3.20;;
18286;SDS011;9269;50.838;12.094;2023-06-05T10:59:30;4.20;;;3.53;;
18286;SDS011;9269;50.838;12.094;2023-06-05T11:07:46;4.60;;;3.43;;
18286;SDS011;9269;50.838;12.094;2023-06-05T11:10:16;3.77;;;3.30;;
18286;SDS011;9269;50.838;12.094;2023-06-05T11:12:59;3.80;;;3.50;;
18286;SDS011;9269;50.838;12.094;2023-06-05T11:15:41;4.73;;;3.53;;
18286;SDS011;9269;50.838;12.094;2023-06-05T11:18:29;4.27;;;3.30;;
18286;SDS011;9269;50.838;12.094;2023-06-05T11:21:01;4.43;;;3.53;;
18286;SDS011;9269;50.838;12.094;2023-06-05T11:23:30;4.80;;;3.60;;
18286;SDS011;9269;50.838;12.094;2023-06-05T11:29:00;4.17;;;3.77;;
18286;SDS011;9269;50.838;12.094;2023-06-05T11:31:30;5.43;;;3.80;;
18286;SDS011;9269;50.838;12.094;2023-06-05T11:33:59;4.40;;;3.60;;
18286;SDS011;9269;50.838;12.094;2023-06-05T11:36:28;3.87;;;3.57;;
18286;SDS011;9269;50.838;12.094;2023-06-05T11:38:57;4.30;;;3.50;;
18286;SDS011;9269;50.838;12.094;2023-06-05T11:41:25;3.80;;;3.40;;
18286;SDS011;9269;50.838;12.094;2023-06-05T11:43:54;4.50;;;4.03;;
18286;SDS011;9269;50.838;12.094;2023-06-05T11:46:36;4.23;;;3.73;;
18286;SDS011;9269;50.838;12.094;2023-06-05T11:49:06;4.83;;;3.60;;
18286;SDS011;9269;50.838;12.094;2023-06-05T11:51:34;4.77;;;4.00;;
18286;SDS011;9269;50.838;12.094;2023-06-05T11:54:03;4.50;;;4.10;;
18286;SDS011;9269;50.838;12.094;2023-06-05T11:56:34;3.90;;;3.57;;
18286;SDS011;9269;50.838;12.094;2023-06-05T11:59:12;4.50;;;3.80;;
18286;SDS011;9269;50.838;12.094;2023-06-05T12:01:44;4.60;;;4.13;;
18286;SDS011;9269;50.838;12.094;2023-06-05T12:04:13;4.30;;;3.90;;
18286;SDS011;9269;50.838;12.094;2023-06-05T12:06:44;6.43;;;4.30;;
18286;SDS011;9269;50.838;12.094;2023-06-05T12:09:14;4.70;;;3.97;;
18286;SDS011;9269;50.838;12.094;2023-06-05T12:11:43;5.97;;;4.00;;
18286;SDS011;9269;50.838;12.094;2023-06-05T12:14:13;4.50;;;4.10;;
18286;SDS011;9269;50.838;12.094;2023-06-05T12:16:58;6.33;;;4.20;;
18286;SDS011;9269;50.838;12.094;2023-06-05T12:19:27;4.77;;;3.73;;
18286;SDS011;9269;50.838;12.094;2023-06-05T12:22:03;5.17;;;4.20;;
18286;SDS011;9269;50.838;12.094;2023-06-05T12:24:33;4.23;;;3.93;;
18286;SDS011;9269;50.838;12.094;2023-06-05T12:27:03;5.20;;;4.40;;
18286;SDS011;9269;50.838;12.094;2023-06-05T12:29:34;4.47;;;4.07;;
18286;SDS011;9269;50.838;12.094;2023-06-05T12:32:20;4.87;;;4.37;;
18286;SDS011;9269;50.838;12.094;2023-06-05T12:34:50;4.47;;;4.07;;
18286;SDS011;9269;50.838;12.094;2023-06-05T12:37:30;4.70;;;4.30;;
18286;SDS011;9269;50.838;12.094;2023-06-05T12:40:05;4.87;;;4.47;;
18286;SDS011;9269;50.838;12.094;2023-06-05T12:42:38;4.83;;;4.43;;
18286;SDS011;9269;50.838;12.094;2023-06-05T12:45:10;4.27;;;3.97;;
18286;SDS011;9269;50.838;12.094;2023-06-05T12:47:41;4.80;;;4.30;;
18286;SDS011;9269;50.838;12.094;2023-06-05T12:50:11;4.63;;;4.23;;
18286;SDS011;9269;50.838;12.094;2023-06-05T12:52:41;6.10;;;4.77;;
18286;SDS011;9269;50.838;12.094;2023-06-05T12:55:10;5.07;;;4.57;;
18286;SDS011;9269;50.838;12.094;2023-06-05T12:57:42;5.17;;;4.73;;
18286;SDS011;9269;50.838;12.094;2023-06-05T13:00:12;4.90;;;4.40;;
18286;SDS011;9269;50.838;12.094;2023-06-05T13:02:45;4.80;;;4.33;;
18286;SDS011;9269;50.838;12.094;2023-06-05T13:05:15;4.60;;;4.20;;
18286;SDS011;9269;50.838;12.094;2023-06-05T13:07:45;5.80;;;4.77;;
18286;SDS011;9269;50.838;12.094;2023-06-05T13:10:13;6.10;;;4.20;;
18286;SDS011;9269;50.838;12.094;2023-06-05T13:12:43;4.80;;;4.20;;
18286;SDS011;9269;50.838;12.094;2023-06-05T13:15:12;5.33;;;4.53;;
18286;SDS011;9269;50.838;12.094;2023-06-05T13:17:41;5.20;;;4.67;;
18286;SDS011;9269;50.838;12.094;2023-06-05T13:20:12;5.33;;;4.87;;
18286;SDS011;9269;50.838;12.094;2023-06-05T13:22:41;4.67;;;4.30;;
18286;SDS011;9269;50.838;12.094;2023-06-05T13:25:09;5.00;;;4.47;;
18286;SDS011;9269;50.838;12.094;2023-06-05T13:27:39;6.93;;;4.50;;
18286;SDS011;9269;50.838;12.094;2023-06-05T13:30:08;6.53;;;4.97;;
18286;SDS011;9269;50.838;12.094;2023-06-05T13:32:38;5.90;;;4.90;;
18286;SDS011;9269;50.838;12.094;2023-06-05T13:35:07;4.90;;;4.50;;
18286;SDS011;9269;50.838;12.094;2023-06-05T13:37:38;5.27;;;4.63;;
18286;SDS011;9269;50.838;12.094;2023-06-05T13:40:07;4.77;;;4.37;;
18286;SDS011;9269;50.838;12.094;2023-06-05T13:42:38;5.43;;;4.93;;
18286;SDS011;9269;50.838;12.094;2023-06-05T13:45:07;4.80;;;4.30;;
18286;SDS011;9269;50.838;12.094;2023-06-05T13:47:37;6.53;;;5.00;;
18286;SDS011;9269;50.838;12.094;2023-06-05T13:50:06;4.67;;;4.30;;
18286;SDS011;9269;50.838;12.094;2023-06-05T13:52:37;5.07;;;4.57;;
18286;SDS011;9269;50.838;12.094;2023-06-05T13:55:06;4.77;;;4.37;;
18286;SDS011;9269;50.838;12.094;2023-06-05T13:57:36;5.97;;;4.80;;
18286;SDS011;9269;50.838;12.094;2023-06-05T14:00:04;5.10;;;4.70;;
18286;SDS011;9269;50.838;12.094;2023-06-05T14:02:34;4.87;;;4.30;;
18286;SDS011;9269;50.838;12.094;2023-06-05T14:05:03;4.80;;;4.40;;
18286;SDS011;9269;50.838;12.094;2023-06-05T14:07:32;5.00;;;4.50;;
18286;SDS011;9269;50.838;12.094;2023-06-05T14:10:17;5.00;;;4.40;;
18286;SDS011;9269;50.838;12.094;2023-06-05T14:12:47;5.63;;;4.30;;
18286;SDS011;9269;50.838;12.094;2023-06-05T14:15:16;5.63;;;4.80;;
18286;SDS011;9269;50.838;12.094;2023-06-05T14:17:45;4.77;;;4.37;;
18286;SDS011;9269;50.838;12.094;2023-06-05T14:20:15;5.17;;;4.67;;
18286;SDS011;9269;50.838;12.094;2023-06-05T14:22:45;5.77;;;4.77;;
18286;SDS011;9269;50.838;12.094;2023-06-05T14:25:14;5.20;;;4.37;;
18286;SDS011;9269;50.838;12.094;2023-06-05T14:27:45;6.20;;;4.57;;
18286;SDS011;9269;50.838;12.094;2023-06-05T14:30:14;5.00;;;4.50;;
18286;SDS011;9269;50.838;12.094;2023-06-05T14:32:43;5.57;;;5.07;;
18286;SDS011;9269;50.838;12.094;2023-06-05T14:35:12;5.60;;;4.80;;
18286;SDS011;9269;50.838;12.094;2023-06-05T14:37:43;4.77;;;4.37;;
18286;SDS011;9269;50.838;12.094;2023-06-05T14:40:12;5.00;;;4.50;;
18286;SDS011;9269;50.838;12.094;2023-06-05T14:42:40;5.90;;;4.87;;
18286;SDS011;9269;50.838;12.094;2023-06-05T14:45:11;6.93;;;4.67;;
18286;SDS011;9269;50.838;12.094;2023-06-05T14:47:40;8.67;;;5.03;;
18286;SDS011;9269;50.838;12.094;2023-06-05T14:50:10;5.60;;;4.60;;
18286;SDS011;9269;50.838;12.094;2023-06-05T14:52:39;8.40;;;4.57;;
18286;SDS011;9269;50.838;12.094;2023-06-05T14:55:08;5.80;;;4.40;;
18286;SDS011;9269;50.838;12.094;2023-06-05T14:57:38;4.80;;;4.40;;
18286;SDS011;9269;50.838;12.094;2023-06-05T15:00:14;5.37;;;4.63;;
18286;SDS011;9269;50.838;12.094;2023-06-05T15:02:46;4.97;;;4.30;;
18286;SDS011;9269;50.838;12.094;2023-06-05T15:05:19;4.80;;;4.03;;
18286;SDS011;9269;50.838;12.094;2023-06-05T15:07:50;5.13;;;4.23;;
18286;SDS011;9269;50.838;12.094;2023-06-05T15:10:18;5.63;;;4.33;;
18286;SDS011;9269;50.838;12.094;2023-06-05T15:12:48;6.70;;;4.50;;
18286;SDS011;9269;50.838;12.094;2023-06-05T15:15:24;5.60;;;4.00;;
18286;SDS011;9269;50.838;12.094;2023-06-05T15:17:53;6.30;;;4.20;;
18286;SDS011;9269;50.838;12.094;2023-06-05T15:20:23;4.83;;;4.43;;